• Join FlightAware (Why Join?)
  • Login
  • US Flag 
11:29PM EDT


 

Airport Tracker/Info


-or-


 

Live Flight TrackerFlight Track Log ✈ SWA494 ✈ 15-Apr-2013 ✈ KSJC - KLAX

Flight Track Log - Related Links

Times and Time Zones

All times are in EDT time to prevent confusion due to time zone crossing. See the SWA494 flight status page for this flight to view local times or setup timezone preferences in your user account.

Time Position Orientation Groundspeed Altitude Reporting Facility
EDT Latitude Longitude Course Direction KTS MPH feet Rate Location/Type
01:11PM 37.3833 -121.9500 141° Southeast 160 184 1,700  Level Northern Cal TRACON
01:12PM 37.4333 -121.9500 360° North 247 284 4,300 1,740 Climbing Northern Cal TRACON
01:12PM 37.4167 -121.8833 107° East 248 285 5,100 2,100 Climbing Northern Cal TRACON
01:13PM 37.3667 -121.8167 133° Southeast 256 295 8,300 2,820 Climbing Northern Cal TRACON
01:14PM 37.3000 -121.7500 141° Southeast 333 383 10,800 2,580 Climbing Northern Cal TRACON
01:16PM 36.9192 -121.4487 141° Southeast  Level Estimated
01:16PM 37.2136 -121.6583 140° Southeast 364 419 13,800  Level Oakland Center
01:17PM 37.1308 -121.5619 137° Southeast 396 456 17,300 3,240 Climbing Oakland Center
01:18PM 37.0336 -121.4575 139° Southeast 422 486 20,500 2,760 Climbing Oakland Center
01:19PM 36.9408 -121.3567 139° Southeast 436 502 23,000 2,520 Climbing Oakland Center
01:20PM 36.8442 -121.2492 138° Southeast 458 527 25,700 2,280 Climbing Oakland Center
01:21PM 36.7514 -121.1508 140° Southeast 471 542 27,700 1,920 Climbing Oakland Center
01:22PM 36.6478 -121.0408 140° Southeast 486 559 29,700 2,100 Climbing Oakland Center
01:23PM 36.5228 -120.9047 139° Southeast 499 574 32,100 2,100 Climbing Oakland Center
01:24PM 36.4183 -120.7925 139° Southeast 498 573 34,100 1,860 Climbing Oakland Center
01:25PM 36.3136 -120.6808 139° Southeast 496 571 35,900 1,380 Climbing Oakland Center
01:26PM 36.2100 -120.5731 140° Southeast 489 563 37,000 480 Climbing Oakland Center
01:27PM 36.1072 -120.4614 139° Southeast 491 565 37,000  Level Oakland Center
01:28PM 36.0044 -120.3519 139° Southeast 486 559 37,000  Level Oakland Center
01:29PM 35.9022 -120.2464 140° Southeast 477 549 37,000  Level Oakland Center
01:30PM 35.8003 -120.1392 140° Southeast 478 550 37,000  Level Oakland Center
01:31PM 35.6983 -120.0331 140° Southeast 476 548 37,000  Level Oakland Center
01:32PM 35.5942 -119.9319 142° Southeast 474 545 37,000  Level Oakland Center
01:33PM 35.4861 -119.8386 145° Southeast 471 542 37,000 -480 Level Oakland Center
01:34PM 35.3792 -119.7475 145° Southeast 466 536 36,100 -1,020 Descending Oakland Center
01:35PM 35.2761 -119.6600 145° Southeast 452 520 35,000 -1,140 Descending Oakland Center
01:36PM 35.1519 -119.5517 144° Southeast 452 520 33,900 -1,560 Descending Oakland Center
01:37PM 35.0483 -119.4625 145° Southeast 455 524 31,900 -2,400 Descending Oakland Center
01:38PM 34.9436 -119.3736 145° Southeast 456 525 29,100 -2,580 Descending Oakland Center
01:39PM 34.8386 -119.2847 145° Southeast 458 527 26,700 -2,280 Descending Oakland Center
01:40PM 34.7367 -119.1992 145° Southeast 450 518 24,500 -2,160 Descending Oakland Center
01:40PM 34.7169 -119.1836 147° Southeast 442 509 24,000 -2,280 Descending Los Angeles Center
01:41PM 34.6078 -119.0925 146° Southeast 434 499 21,600 -1,860 Descending Los Angeles Center
01:42PM 34.5183 -119.0153 145° Southeast 392 451 20,200 -1,500 Descending Los Angeles Center
01:43PM 34.4347 -118.9467 146° Southeast 361 415 18,600 -1,140 Descending Los Angeles Center
01:44PM 34.3606 -118.8825 144° Southeast 325 374 17,900 -1,200 Descending Los Angeles Center
01:45PM 34.2606 -118.8608 170° South 298 343 16,200 -1,500 Descending Los Angeles Center
01:46PM 34.1789 -118.8539 176° South 295 339 14,900 -1,200 Descending Los Angeles Center
01:48PM 34.0986 -118.8467 176° South 290 334 13,800 -1,260 Descending Los Angeles Center
01:49PM 34.0367 -118.7933 144° Southeast 303 349 12,400 -1,260 Descending Los Angeles Center
01:50PM 34.0275 -118.6786 95° East 300 345 11,200 -1,440 Descending Los Angeles Center
01:51PM 34.0208 -118.5797 95° East 296 341 9,400 -1,920 Descending Los Angeles Center
01:52PM 34.0111 -118.4714 96° East 301 346 7,300 -1,440 Descending Los Angeles Center
01:53PM 34.0186 -118.3789 84° East 281 323 6,500 -1,260 Descending Los Angeles Center
01:54PM 34.0278 -118.2931 83° East 263 303 4,700 -1,680 Descending Los Angeles Center
01:55PM 34.0356 -118.2072 84° East 257 296 3,100 -1,020 Descending Los Angeles Center
01:56PM 34.0433 -118.1256 83° East 251 289 2,600 -420 Descending Los Angeles Center
01:56PM 34.0333 -118.1000 115° Southeast 228 262 2,600  Level Southern California TRACON
01:57PM 33.9833 -118.1167 195° South 195 224 2,600 -120 Level Southern California TRACON
01:58PM 33.9772 -118.1522 258° West 193 222 2,400 -240 Descending Los Angeles Center
01:59PM 33.9708 -118.2217 264° West 182 209 2,200 -120 Descending Los Angeles Center
02:00PM 33.9653 -118.2778 263° West 175 201 2,200 -480 Level Los Angeles Center
02:01PM 33.9592 -118.3322 262° West 170 196 1,300 -780 Descending Los Angeles Center
02:02PM 33.9556 -118.3778 265° West 154 177 600 -540 Descending Los Angeles Center
02:03PM 33.9511 -118.4247 264° West 142 163 200 -420 Descending Los Angeles Center
02:05PM 33.9425 -118.4081 231° Southwest  Level Estimated